createdAt,value
2019-01-13T00:03:29.730Z,7.23
2019-01-13T00:05:58.049Z,7.28
2019-01-13T00:08:26.366Z,7.26
2019-01-13T00:10:54.658Z,7.23
2019-01-13T00:13:22.960Z,7.23
2019-01-13T00:15:51.272Z,7.25
2019-01-13T00:18:19.591Z,7.28
2019-01-13T00:20:47.882Z,7.29
2019-01-13T00:23:16.218Z,7.26
2019-01-13T00:25:44.506Z,7.23
2019-01-13T00:28:12.812Z,7.24
2019-01-13T00:30:41.108Z,7.27
2019-01-13T00:33:09.409Z,7.23
2019-01-13T00:35:38.015Z,7.20
2019-01-13T00:38:06.301Z,7.22
2019-01-13T00:40:34.619Z,7.22
2019-01-13T00:43:03.242Z,7.25
2019-01-13T00:45:31.573Z,7.31
2019-01-13T00:47:59.878Z,7.33
2019-01-13T00:50:28.201Z,7.35
2019-01-13T00:52:56.753Z,7.34
2019-01-13T00:55:25.057Z,7.30
2019-01-13T00:57:53.417Z,7.33
2019-01-13T01:01:01.875Z,7.34
2019-01-13T01:03:30.160Z,7.35
2019-01-13T01:05:58.470Z,7.34
2019-01-13T01:09:06.814Z,7.37
2019-01-13T01:11:35.476Z,7.38
2019-01-13T01:14:43.814Z,7.37
2019-01-13T01:17:31.583Z,7.38
2019-01-13T01:19:59.880Z,7.41
2019-01-13T01:22:28.191Z,7.43
2019-01-13T01:24:56.491Z,7.47
2019-01-13T01:27:24.782Z,7.48
2019-01-13T01:29:53.110Z,7.48
2019-01-13T01:32:21.405Z,7.46
2019-01-13T01:34:49.726Z,7.45
2019-01-13T01:37:18.027Z,7.46
2019-01-13T01:39:46.630Z,7.46
2019-01-13T01:42:34.121Z,7.41
2019-01-13T01:45:02.445Z,7.37
2019-01-13T01:47:30.747Z,7.38
2019-01-13T01:49:59.047Z,7.35
2019-01-13T01:52:27.668Z,7.34
2019-01-13T01:54:55.969Z,7.32
2019-01-13T01:57:24.293Z,7.32
2019-01-13T01:59:52.591Z,7.34
2019-01-13T02:04:56.164Z,7.47
2019-01-13T02:07:24.415Z,7.45
2019-01-13T02:09:52.718Z,7.41
2019-01-13T02:12:21.038Z,7.38
2019-01-13T02:14:49.342Z,7.38
2019-01-13T02:17:17.651Z,7.43
2019-01-13T02:19:45.946Z,7.46
2019-01-13T02:22:14.252Z,7.48
2019-01-13T02:24:42.561Z,7.48
2019-01-13T02:27:10.861Z,7.48
2019-01-13T02:29:39.490Z,7.46
2019-01-13T02:32:07.785Z,7.44
2019-01-13T02:34:36.088Z,7.45
2019-01-13T02:37:23.593Z,7.43
2019-01-13T02:40:11.285Z,7.47
2019-01-13T02:42:58.967Z,7.48
2019-01-13T02:46:07.323Z,7.48
2019-01-13T02:48:35.623Z,7.50
2019-01-13T02:51:03.951Z,7.48
2019-01-13T02:53:32.604Z,7.53
2019-01-13T02:56:00.929Z,7.53
2019-01-13T02:58:29.549Z,7.53
2019-01-13T03:00:57.867Z,7.54
2019-01-13T03:03:38.752Z,7.49
2019-01-13T03:05:56.558Z,7.51
2019-01-13T03:08:24.862Z,7.55
2019-01-13T03:10:53.181Z,7.53
2019-01-13T03:13:40.599Z,7.54
2019-01-13T03:16:08.913Z,7.50
2019-01-13T03:18:37.225Z,7.52
2019-01-13T03:21:05.520Z,7.50
2019-01-13T03:23:33.827Z,7.52
2019-01-13T03:26:02.122Z,7.52
2019-01-13T03:31:23.508Z,7.53
2019-01-13T03:33:51.826Z,7.56
2019-01-13T03:36:20.125Z,7.62
2019-01-13T03:38:48.449Z,7.64
2019-01-13T03:41:16.752Z,7.63
2019-01-13T03:43:45.076Z,7.65
2019-01-13T03:46:32.825Z,7.63
2019-01-13T03:49:01.129Z,7.62
2019-01-13T03:51:48.804Z,7.56
2019-01-13T03:54:17.437Z,7.55
2019-01-13T03:56:45.746Z,7.54
2019-01-13T03:59:14.082Z,7.55
2019-01-13T04:04:29.706Z,7.60
2019-01-13T04:06:57.995Z,7.60
2019-01-13T04:09:26.285Z,7.57
2019-01-13T04:11:54.605Z,7.61
2019-01-13T04:14:22.906Z,7.61
2019-01-13T04:16:51.215Z,7.58
2019-01-13T04:19:19.516Z,7.58
2019-01-13T04:21:47.826Z,7.60
2019-01-13T04:24:16.123Z,7.60
2019-01-13T04:29:17.961Z,7.63
2019-01-13T04:31:46.282Z,7.66
2019-01-13T04:34:14.575Z,7.62
2019-01-13T04:36:43.236Z,7.64
2019-01-13T04:39:11.530Z,7.66
2019-01-13T04:41:39.824Z,7.64
2019-01-13T04:44:08.141Z,7.65
2019-01-13T04:46:38.547Z,7.70
2019-01-13T04:49:06.775Z,7.71
2019-01-13T04:51:35.093Z,7.74
2019-01-13T04:54:03.418Z,7.72
2019-01-13T04:56:31.721Z,7.73
2019-01-13T04:59:00.270Z,7.74
2019-01-13T05:01:34.429Z,7.74
2019-01-13T05:03:58.613Z,7.74
2019-01-13T05:06:26.930Z,7.75
2019-01-13T05:08:55.228Z,7.75
2019-01-13T05:11:23.543Z,7.73
2019-01-13T05:13:51.854Z,7.77
2019-01-13T05:16:20.170Z,7.78
2019-01-13T05:18:48.740Z,7.81
2019-01-13T05:21:17.054Z,7.80
2019-01-13T05:23:45.352Z,7.80
2019-01-13T05:26:13.666Z,7.77
2019-01-13T05:28:41.951Z,7.78
2019-01-13T05:31:10.315Z,7.78
2019-01-13T05:33:38.906Z,7.81
2019-01-13T05:36:07.209Z,7.81
2019-01-13T05:38:35.519Z,7.84
2019-01-13T05:41:23.433Z,7.84
2019-01-13T05:43:51.751Z,7.85
2019-01-13T05:46:20.057Z,7.82
2019-01-13T05:48:48.740Z,7.82
2019-01-13T05:51:17.047Z,7.80
2019-01-13T05:53:45.375Z,7.80
2019-01-13T05:56:13.672Z,7.86
2019-01-13T05:58:41.991Z,7.93
2019-01-13T06:01:29.729Z,7.96
2019-01-13T06:03:58.363Z,7.99
2019-01-13T06:06:26.959Z,8.00
2019-01-13T06:08:55.278Z,7.96
2019-01-13T06:11:23.583Z,7.93
2019-01-13T06:14:11.287Z,7.93
2019-01-13T06:16:39.590Z,7.94
2019-01-13T06:19:07.899Z,7.96
2019-01-13T06:24:10.216Z,7.92
2019-01-13T06:26:38.524Z,7.92
2019-01-13T06:29:25.933Z,7.93
2019-01-13T06:31:56.481Z,7.92
2019-01-13T06:34:24.270Z,7.93
2019-01-13T06:37:11.696Z,7.94
2019-01-13T06:39:40.002Z,7.93
2019-01-13T06:42:08.319Z,7.92
2019-01-13T06:44:36.614Z,7.91
2019-01-13T06:47:04.923Z,7.90
2019-01-13T06:52:22.208Z,7.92
2019-01-13T06:54:50.497Z,7.92
2019-01-13T06:57:18.818Z,7.93
2019-01-13T06:59:47.105Z,7.91
2019-01-13T07:02:15.390Z,7.92
2019-01-13T07:04:43.721Z,7.93
2019-01-13T07:07:12.022Z,7.91
2019-01-13T07:09:40.342Z,7.88
2019-01-13T07:12:27.765Z,7.87
2019-01-13T07:17:29.920Z,7.88
2019-01-13T07:19:58.574Z,7.91
2019-01-13T07:22:26.857Z,7.93
2019-01-13T07:24:55.162Z,7.92
2019-01-13T07:27:42.869Z,7.92
2019-01-13T07:30:51.232Z,7.92
2019-01-13T07:36:06.862Z,7.94
2019-01-13T07:38:35.150Z,7.96
2019-01-13T07:41:03.435Z,7.98
2019-01-13T07:43:31.753Z,8.00
2019-01-13T07:46:00.052Z,7.98
2019-01-13T07:48:28.659Z,8.01
2019-01-13T07:51:16.332Z,8.05
2019-01-13T07:53:44.644Z,8.02
2019-01-13T07:56:13.253Z,8.05
2019-01-13T08:01:28.873Z,8.08
2019-01-13T08:03:57.434Z,8.09
2019-01-13T08:06:25.736Z,8.10
2019-01-13T08:11:41.362Z,8.13
2019-01-13T08:14:09.659Z,8.12
2019-01-13T08:16:37.960Z,8.14
2019-01-13T08:19:06.555Z,8.14
2019-01-13T08:21:34.877Z,8.15
2019-01-13T08:24:03.166Z,8.16
2019-01-13T08:26:31.467Z,8.20
2019-01-13T08:28:59.761Z,8.20
2019-01-13T08:31:28.343Z,8.21
2019-01-13T08:33:56.653Z,8.22
2019-01-13T08:37:05.008Z,8.24
2019-01-13T08:39:33.311Z,8.28
2019-01-13T08:42:01.603Z,8.27
2019-01-13T08:44:49.038Z,8.28
2019-01-13T08:47:17.333Z,8.28
2019-01-13T08:49:45.644Z,8.29
2019-01-13T08:52:13.937Z,8.30
2019-01-13T08:54:42.246Z,8.33
2019-01-13T08:57:10.536Z,8.34
2019-01-13T08:59:38.840Z,8.37
2019-01-13T09:02:07.139Z,8.41
2019-01-13T09:04:54.581Z,8.42
2019-01-13T09:07:23.182Z,8.40
2019-01-13T09:10:10.875Z,8.44
2019-01-13T09:12:39.166Z,8.46
2019-01-13T09:15:47.524Z,8.50
2019-01-13T09:18:15.880Z,8.54
2019-01-13T09:20:44.201Z,8.57
2019-01-13T09:23:31.947Z,8.59
2019-01-13T09:26:00.269Z,8.62
2019-01-13T09:28:28.577Z,8.64
2019-01-13T09:30:56.895Z,8.67
2019-01-13T09:33:44.570Z,8.68
2019-01-13T09:36:12.892Z,8.72
2019-01-13T09:38:41.185Z,8.75
2019-01-13T09:41:09.482Z,8.80
2019-01-13T09:43:37.794Z,8.82
2019-01-13T09:46:06.100Z,8.82
2019-01-13T09:48:34.408Z,8.84
2019-01-13T09:51:02.976Z,8.90
2019-01-13T09:53:31.302Z,8.89
2019-01-13T09:55:59.640Z,8.88
2019-01-13T09:58:47.147Z,8.86
2019-01-13T10:01:34.824Z,8.86
2019-01-13T10:04:03.144Z,8.86
2019-01-13T10:06:31.448Z,8.90
2019-01-13T10:08:59.750Z,8.89
2019-01-13T10:17:10.245Z,8.91
2019-01-13T10:19:38.566Z,8.94
2019-01-13T10:22:06.866Z,8.97
2019-01-13T10:24:35.154Z,8.98
2019-01-13T10:29:37.072Z,9.01
2019-01-13T10:32:24.755Z,9.01
2019-01-13T10:34:53.049Z,8.99
2019-01-13T10:37:21.362Z,8.99
2019-01-13T10:39:49.674Z,8.98
2019-01-13T10:42:18.282Z,8.96
2019-01-13T10:45:05.954Z,8.98
2019-01-13T10:47:34.282Z,9.01
2019-01-13T10:50:21.944Z,8.98
2019-01-13T10:55:45.324Z,8.97
2019-01-13T10:58:13.629Z,8.96
2019-01-13T11:00:41.922Z,8.98
2019-01-13T11:03:10.230Z,9.01
2019-01-13T11:08:43.369Z,9.05
2019-01-13T11:11:31.032Z,9.08
2019-01-13T11:13:59.651Z,9.07
2019-01-13T11:16:28.248Z,9.09
2019-01-13T11:19:15.899Z,9.12
2019-01-13T11:22:03.723Z,9.13
2019-01-13T11:24:32.380Z,9.07
2019-01-13T11:27:20.288Z,9.09
2019-01-13T11:30:07.989Z,9.09
2019-01-13T11:32:36.533Z,9.12
2019-01-13T11:35:44.903Z,9.11
2019-01-13T11:38:13.540Z,9.08
2019-01-13T11:41:01.217Z,9.08
2019-01-13T11:43:29.522Z,9.13
2019-01-13T11:45:57.830Z,9.15
2019-01-13T11:48:26.150Z,9.14
2019-01-13T11:50:54.450Z,9.13
2019-01-13T11:53:22.773Z,9.11
2019-01-13T11:56:03.226Z,9.15
2019-01-13T11:58:31.538Z,9.15
2019-01-13T12:00:59.845Z,9.09
2019-01-13T12:03:47.973Z,9.11
2019-01-13T12:06:16.591Z,9.16
2019-01-13T12:09:04.295Z,9.19
2019-01-13T12:11:32.583Z,9.13
2019-01-13T12:14:01.189Z,9.15
2019-01-13T12:16:48.865Z,9.14
2019-01-13T12:19:17.151Z,9.17
2019-01-13T12:21:45.785Z,9.19
2019-01-13T12:24:14.360Z,9.20
2019-01-13T12:26:42.946Z,9.15
2019-01-13T12:29:11.236Z,9.16
2019-01-13T12:31:39.532Z,9.15
2019-01-13T12:34:08.191Z,9.15
2019-01-13T12:36:55.885Z,9.12
2019-01-13T12:39:24.496Z,9.13
2019-01-13T12:42:12.196Z,9.15
2019-01-13T12:47:27.831Z,9.07
2019-01-13T12:50:15.496Z,9.09
2019-01-13T12:53:03.202Z,9.10
2019-01-13T12:55:50.623Z,9.08
2019-01-13T12:58:18.932Z,9.10
2019-01-13T13:00:47.485Z,9.05
2019-01-13T13:03:16.170Z,9.07
2019-01-13T13:08:32.069Z,9.11
2019-01-13T13:11:00.369Z,9.12
2019-01-13T13:13:28.933Z,9.10
2019-01-13T13:15:57.245Z,9.11
2019-01-13T13:18:25.536Z,9.05
2019-01-13T13:20:53.838Z,9.07
2019-01-13T13:23:22.141Z,9.04
2019-01-13T13:25:50.443Z,9.04
2019-01-13T13:28:19.177Z,9.06
2019-01-13T13:33:38.925Z,9.07
2019-01-13T13:36:46.191Z,9.09
2019-01-13T13:41:48.000Z,9.10
2019-01-13T13:44:16.305Z,9.09
2019-01-13T13:46:44.602Z,9.10
2019-01-13T13:49:12.906Z,9.14
2019-01-13T13:51:41.197Z,9.12
2019-01-13T13:54:28.880Z,9.02
2019-01-13T13:56:57.177Z,9.02
2019-01-13T14:01:58.922Z,8.98
2019-01-13T14:04:27.225Z,9.04
2019-01-13T14:07:15.116Z,9.03
2019-01-13T14:09:43.476Z,9.01
2019-01-13T14:12:12.038Z,8.98
2019-01-13T14:17:14.594Z,9.03
2019-01-13T14:19:43.149Z,9.01
2019-01-13T14:22:11.449Z,9.03
2019-01-13T14:27:46.418Z,9.03
2019-01-13T14:30:55.008Z,9.05
2019-01-13T14:33:23.640Z,9.03
2019-01-13T14:35:51.927Z,9.03
2019-01-13T14:40:54.017Z,9.01
2019-01-13T14:43:22.321Z,9.03
2019-01-13T14:45:50.616Z,9.02
2019-01-13T14:53:27.152Z,8.98
2019-01-13T14:55:56.271Z,8.98
2019-01-13T14:58:26.066Z,8.97
2019-01-13T15:01:13.497Z,9.00
2019-01-13T15:03:41.814Z,9.01
2019-01-13T15:06:10.105Z,9.02
2019-01-13T15:08:38.427Z,9.05
2019-01-13T15:11:06.712Z,9.03
2019-01-13T15:16:22.325Z,8.98
2019-01-13T15:19:09.727Z,8.98
2019-01-13T15:21:38.035Z,9.00
2019-01-13T15:24:06.334Z,8.98
2019-01-13T15:26:34.950Z,8.94
2019-01-13T15:29:03.252Z,8.94
2019-01-13T15:34:25.085Z,8.95
2019-01-13T15:37:12.869Z,8.95
2019-01-13T15:39:41.408Z,8.97
2019-01-13T15:42:09.736Z,8.98
2019-01-13T15:44:38.041Z,8.96
2019-01-13T15:47:06.338Z,8.96
2019-01-13T15:52:41.599Z,8.98
2019-01-13T15:55:09.973Z,8.97
2019-01-13T15:57:38.294Z,9.00
2019-01-13T16:00:43.740Z,8.98
2019-01-13T16:06:05.702Z,9.02
2019-01-13T16:08:53.407Z,9.01
2019-01-13T16:11:21.710Z,9.04
2019-01-13T16:13:50.016Z,9.05
2019-01-13T16:16:37.687Z,9.02
2019-01-13T16:19:05.992Z,9.00
2019-01-13T16:21:34.290Z,9.02
2019-01-13T16:24:21.933Z,9.00
2019-01-13T16:26:50.229Z,9.01
2019-01-13T16:29:18.556Z,9.06
2019-01-13T16:31:46.849Z,9.00
2019-01-13T16:34:21.414Z,9.00
2019-01-13T16:36:45.477Z,9.04
2019-01-13T16:39:33.168Z,9.03
2019-01-13T16:42:01.447Z,9.05
2019-01-13T16:44:29.738Z,9.06
2019-01-13T16:46:58.057Z,9.08
2019-01-13T16:49:26.361Z,9.08
2019-01-13T16:51:54.668Z,9.09
2019-01-13T16:54:22.946Z,9.04
2019-01-13T16:56:51.257Z,9.05
2019-01-13T16:59:19.800Z,9.06
2019-01-13T17:01:48.120Z,9.08
2019-01-13T17:07:05.987Z,9.01
2019-01-13T17:09:34.345Z,9.03
2019-01-13T17:12:02.662Z,9.06
2019-01-13T17:14:30.940Z,9.02
2019-01-13T17:19:46.552Z,8.99
2019-01-13T17:22:15.167Z,8.97
2019-01-13T17:25:03.081Z,8.97
2019-01-13T17:27:31.682Z,8.97
2019-01-13T17:30:00.002Z,9.01
2019-01-13T17:32:47.658Z,9.01
2019-01-13T17:35:56.013Z,9.04
2019-01-13T17:38:24.323Z,9.00
2019-01-13T17:40:52.609Z,8.97
2019-01-13T17:43:20.911Z,8.85
2019-01-13T17:45:49.520Z,8.75
2019-01-13T17:48:17.813Z,8.49
2019-01-13T17:50:46.112Z,8.36
2019-01-13T17:53:14.410Z,8.30
2019-01-13T17:55:42.721Z,8.26
2019-01-13T17:58:11.006Z,8.25
2019-01-13T18:01:19.359Z,8.21
2019-01-13T18:04:07.023Z,8.18
2019-01-13T18:06:35.341Z,8.11
2019-01-13T18:12:11.705Z,8.02
2019-01-13T18:14:59.112Z,7.97
2019-01-13T18:17:27.408Z,7.99
2019-01-13T18:19:55.707Z,8.04
2019-01-13T18:22:43.352Z,8.06
2019-01-13T18:25:51.678Z,8.10
2019-01-13T18:28:39.434Z,8.08
2019-01-13T18:33:55.058Z,8.11
2019-01-13T18:36:42.678Z,8.13
2019-01-13T18:39:30.383Z,8.09
2019-01-13T18:41:58.676Z,8.09
2019-01-13T18:47:20.591Z,8.10
2019-01-13T18:52:22.536Z,8.09
2019-01-13T18:54:50.847Z,8.08
2019-01-13T18:57:19.141Z,8.09
2019-01-13T18:59:47.434Z,8.04
2019-01-13T19:02:15.749Z,8.01
2019-01-13T19:04:44.049Z,8.05
2019-01-13T19:07:12.740Z,8.12
2019-01-13T19:09:41.028Z,8.14
2019-01-13T19:12:09.341Z,8.09
2019-01-13T19:17:25.272Z,8.12
2019-01-13T19:19:53.557Z,8.12
2019-01-13T19:22:21.854Z,8.07
2019-01-13T19:27:23.723Z,8.00
2019-01-13T19:29:52.025Z,7.97
2019-01-13T19:32:20.656Z,7.89
2019-01-13T19:34:48.956Z,7.86
2019-01-13T19:37:17.274Z,7.83
2019-01-13T19:39:45.589Z,7.77
2019-01-13T19:42:33.257Z,7.77
2019-01-13T19:45:01.913Z,7.77
2019-01-13T19:47:30.207Z,7.75
2019-01-13T19:49:58.514Z,7.75
2019-01-13T19:52:26.796Z,7.74
2019-01-13T19:54:55.091Z,7.72
2019-01-13T19:57:23.424Z,7.72
2019-01-13T19:59:51.720Z,7.73
2019-01-13T20:02:20.025Z,7.78
2019-01-13T20:04:48.326Z,7.84
2019-01-13T20:07:36.021Z,7.83
2019-01-13T20:10:44.357Z,7.83
2019-01-13T20:16:45.522Z,7.91
2019-01-13T20:19:13.843Z,7.93
2019-01-13T20:21:42.143Z,7.99
2019-01-13T20:24:10.445Z,7.98
2019-01-13T20:26:38.757Z,8.00
2019-01-13T20:29:07.064Z,8.00
2019-01-13T20:31:35.396Z,8.02
2019-01-13T20:34:03.685Z,8.00
2019-01-13T20:39:45.727Z,7.96
2019-01-13T20:42:33.406Z,7.93
2019-01-13T20:45:20.835Z,7.91
2019-01-13T20:47:49.152Z,7.93
2019-01-13T20:50:36.891Z,7.96
2019-01-13T20:53:45.241Z,7.98
2019-01-13T20:56:33.257Z,8.03
2019-01-13T21:01:55.306Z,8.05
2019-01-13T21:04:43.075Z,7.97
2019-01-13T21:10:44.903Z,7.94
2019-01-13T21:13:13.718Z,7.95
2019-01-13T21:15:42.014Z,8.00
2019-01-13T21:18:29.448Z,7.95
2019-01-13T21:20:57.746Z,7.91
2019-01-13T21:23:26.064Z,7.93
2019-01-13T21:25:54.343Z,7.94
2019-01-13T21:31:11.953Z,7.94
2019-01-13T21:33:40.245Z,7.91
2019-01-13T21:36:08.541Z,7.86
2019-01-13T21:41:24.169Z,7.76
2019-01-13T21:44:12.075Z,7.71
2019-01-13T21:46:59.510Z,7.70
2019-01-13T21:49:27.806Z,7.67
2019-01-13T21:54:29.927Z,7.66
2019-01-13T21:56:58.244Z,7.71
2019-01-13T21:59:26.539Z,7.77
2019-01-13T22:01:55.154Z,7.81
2019-01-13T22:04:23.440Z,7.83
2019-01-13T22:06:51.729Z,7.84
2019-01-13T22:09:39.650Z,7.84
2019-01-13T22:12:07.932Z,7.86
2019-01-13T22:14:36.525Z,7.89
2019-01-13T22:17:44.848Z,7.87
2019-01-13T22:20:32.512Z,7.93
2019-01-13T22:23:19.957Z,7.89
2019-01-13T22:25:48.265Z,7.92
2019-01-13T22:31:03.891Z,7.93
2019-01-13T22:33:51.809Z,7.95
2019-01-13T22:36:20.125Z,7.94
2019-01-13T22:38:48.426Z,7.88
2019-01-13T22:41:16.727Z,7.89
2019-01-13T22:43:45.012Z,7.85
2019-01-13T22:46:13.318Z,7.78
2019-01-13T22:48:41.869Z,7.78
2019-01-13T22:51:10.178Z,7.77
2019-01-13T22:53:38.471Z,7.79
2019-01-13T22:56:06.780Z,7.77
2019-01-13T22:58:35.064Z,7.75
2019-01-13T23:01:43.671Z,7.68
2019-01-13T23:07:00.919Z,7.64
2019-01-13T23:09:48.964Z,7.56
2019-01-13T23:12:24.241Z,7.54
2019-01-13T23:14:52.537Z,7.57
2019-01-13T23:17:40.224Z,7.56
2019-01-13T23:20:48.542Z,7.58
2019-01-13T23:23:35.966Z,7.58
2019-01-13T23:26:44.310Z,7.54
2019-01-13T23:29:12.608Z,7.53
2019-01-13T23:31:40.891Z,7.54
2019-01-13T23:34:09.175Z,7.56
2019-01-13T23:36:37.782Z,7.55
2019-01-13T23:39:46.115Z,7.54
2019-01-13T23:42:33.787Z,7.58
2019-01-13T23:45:02.089Z,7.57
2019-01-13T23:47:30.393Z,7.57
2019-01-13T23:49:58.672Z,7.62
2019-01-13T23:52:26.989Z,7.61
2019-01-13T23:54:55.619Z,7.57
2019-01-13T23:57:23.923Z,7.56
2019-01-13T23:59:52.200Z,7.55
